Accueil
METAR-TAF:

METAR-TAF

Aéroports :

Nörvenich, Allemagne

Base aérienne de Nörvenich

latitude: 50-50N, longitude: 006-40E, altitude: 118 m

Observation

Le bulletin a été fait il y a 26 minutes, à 03:20 UTC
Vent 12 kt de ouest
Température 15°C
Humidité 82%
Pression 1013 hPa
Visibilité: 5000 m

METAR: ETNN 230320Z AUTO 28012KT 5000 // ////// 15/12 Q1013 ///

Heure: 05:46 (03:46 UTC)


TAF: absent

Observations et prévisions météorologiques de plus de 4000 aéroports (messages METAR et TAF).

Les stations disponibles sont représentées par des disques jaunes et rouges sur la carte.

Passer la souris dessus pour voir le nom de la station.

Cliquer dessus pour voir les observations et prévisions météorologiques.

Pour changer de carte: cliquez sur les boutons verts avec une croix noire pour zoomer, sur le bouton vert avec un tiret pour effectuer un zoom arrière, ou sur les flèches vertes pour les cartes adjacentes.


METAR-TAF: